Freedom, Oklahoma
Current Conditions -  °F | °C
As of 6:15 AM on Wednesday 28 Jan 2015 (Local Time) from KAVK Reporting Station
Broken Clouds Broken Clouds  
Wind Chill: 38°   Ceiling: 1700
Heat Index: 45°   Visibility: 10mi
Dew Point: 34°   Wind: 13mph
Humidity: 66%   Direction: 180°S
Pressure: 29.9"   Gusts: NA
Location:  36.77°N, 99.11°W
Report Text: KAVK 281215Z AUTO 18011KT 10SM BKN017 07/01 A2990 RMK AO2
Loading
Personal Weather Stations






























Interactive Weather Map New forecast layout! Learn more

10-Day Weather Forecast

Advertisements
Track Severe Weather on mobile